Time;durP1;ratioP1;P1;durP2;ratioP2;P2;SDS_P1;SDS_P2;PMS_P1;PMS_P2;Temp;Humidity;BMP_temperature;BMP_pressure;BME280_temperature;BME280_humidity;BME280_pressure;Samples;Min_cycle;Max_cycle;Signal;HPM_P1;HPM_P2
2023/05/02 00:01:04;;;;;;;13.70;11.70;;;;;;;6.56;91.08;97720.80;110131;1241;59680;-74
2023/05/02 00:03:36;;;;;;;14.50;11.20;;;;;;;6.50;91.37;97724.73;110185;1241;59705;-74
2023/05/02 00:06:06;;;;;;;11.20;9.50;;;;;;;6.46;90.73;97724.63;110207;1244;70660;-73
2023/05/02 00:08:38;;;;;;;11.30;8.70;;;;;;;6.43;91.01;97726.50;110198;1243;69236;-74
2023/05/02 00:11:11;;;;;;;11.60;8.50;;;;;;;6.39;89.66;97724.82;110198;1242;68624;-74
2023/05/02 00:13:42;;;;;;;11.80;8.70;;;;;;;6.36;88.19;97724.41;110197;1243;59746;-74
2023/05/02 00:16:13;;;;;;;9.40;7.80;;;;;;;6.35;86.57;97729.69;110191;1241;59648;-75
2023/05/02 00:18:43;;;;;;;10.20;8.70;;;;;;;6.33;85.85;97732.35;110145;1241;70765;-74
2023/05/02 00:21:14;;;;;;;11.10;8.80;;;;;;;6.35;85.86;97734.00;110214;1244;69310;-75
2023/05/02 00:23:45;;;;;;;9.30;7.60;;;;;;;6.38;86.16;97734.36;110177;1245;67896;-75
2023/05/02 00:26:15;;;;;;;14.30;9.00;;;;;;;6.42;87.77;97738.51;110187;1241;59694;-75
2023/05/02 00:28:46;;;;;;;11.00;8.80;;;;;;;6.44;87.78;97742.91;110198;1244;59633;-75
2023/05/02 00:31:16;;;;;;;10.70;8.00;;;;;;;6.47;87.12;97738.77;110212;1244;70656;-75
2023/05/02 00:33:48;;;;;;;10.80;8.60;;;;;;;6.49;87.57;97738.83;110173;1243;69214;-75
2023/05/02 00:36:20;;;;;;;10.90;8.30;;;;;;;6.49;88.30;97739.54;110191;1241;68864;-75
2023/05/02 00:38:52;;;;;;;10.50;8.00;;;;;;;6.50;90.48;97738.43;110199;1243;60147;-75
2023/05/02 00:41:24;;;;;;;10.00;7.60;;;;;;;6.48;88.41;97739.04;110181;1243;59664;-75
2023/05/02 00:43:55;;;;;;;11.30;8.70;;;;;;;6.47;86.39;97740.14;110145;1241;71462;-75
2023/05/02 00:46:30;;;;;;;9.60;7.60;;;;;;;6.47;87.78;97743.96;110176;1243;67617;-75
2023/05/02 00:49:02;;;;;;;9.90;8.60;;;;;;;6.46;85.03;97743.30;110171;1241;68426;-74
2023/05/02 00:51:36;;;;;;;8.30;7.10;;;;;;;6.45;85.03;97747.71;110210;1241;59690;-74
2023/05/02 00:54:09;;;;;;;9.60;7.60;;;;;;;6.43;83.10;97749.34;110166;1244;59698;-74
2023/05/02 00:56:41;;;;;;;12.10;8.90;;;;;;;6.45;83.65;97744.95;110133;1244;69771;-74
2023/05/02 00:59:16;;;;;;;12.60;7.80;;;;;;;6.45;83.99;97742.48;110168;1243;69108;-74
2023/05/02 01:02:26;;;;;;;11.30;8.40;;;;;;;6.44;84.15;97743.23;110168;1241;68255;-74
2023/05/02 01:05:06;;;;;;;11.50;8.00;;;;;;;6.48;85.31;97745.30;109913;1244;59698;-74
2023/05/02 01:07:47;;;;;;;;;;;;;;;6.50;84.83;97747.08;109851;1248;59698;-75
2023/05/02 01:11:00;;;;;;;9.30;7.40;;;;;;;6.48;84.56;97744.77;109752;1244;70793;-74
2023/05/02 01:13:37;;;;;;;9.40;7.90;;;;;;;6.43;84.13;97748.67;109936;1244;68475;-74
2023/05/02 01:16:10;;;;;;;11.00;8.30;;;;;;;6.39;84.13;97747.83;109739;1247;69309;-74
2023/05/02 01:18:43;;;;;;;10.20;7.90;;;;;;;6.35;88.77;97746.95;109770;1246;59795;-74
2023/05/02 01:21:12;;;;;;;10.20;6.80;;;;;;;6.32;85.03;97748.87;109859;1245;59650;-74
2023/05/02 01:24:09;;;;;;;9.10;6.50;;;;;;;6.29;84.05;97752.81;109924;1246;70635;-75
2023/05/02 01:27:00;;;;;;;12.90;8.30;;;;;;;6.29;88.02;97750.58;109821;1245;69234;-75
2023/05/02 01:29:34;;;;;;;8.40;7.00;;;;;;;6.28;89.20;97748.71;109738;1244;69279;-74
2023/05/02 01:32:08;;;;;;;9.90;7.50;;;;;;;6.26;89.31;97749.52;109971;1245;59740;-74
2023/05/02 01:34:42;;;;;;;11.20;7.50;;;;;;;6.23;89.71;97747.77;110049;1245;59761;-75
2023/05/02 01:37:17;;;;;;;9.80;7.70;;;;;;;6.20;89.13;97746.55;110065;1244;70460;-74
2023/05/02 01:39:50;;;;;;;10.40;7.60;;;;;;;6.17;89.66;97745.81;109993;1244;68813;-74
2023/05/02 01:42:22;;;;;;;8.70;7.10;;;;;;;6.15;91.46;97744.70;109990;1245;69368;-75
2023/05/02 01:44:55;;;;;;;9.70;6.90;;;;;;;6.11;89.49;97745.04;109939;1244;59749;-74
2023/05/02 01:47:26;;;;;;;8.50;7.00;;;;;;;6.07;87.93;97746.84;109889;1244;59744;-74
2023/05/02 01:49:59;;;;;;;9.70;8.00;;;;;;;6.04;87.15;97745.76;110056;1244;70664;-75
2023/05/02 01:52:29;;;;;;;8.50;6.50;;;;;;;6.03;86.79;97744.25;109846;1246;69213;-75
2023/05/02 01:55:01;;;;;;;9.80;7.00;;;;;;;6.02;85.24;97741.20;109880;1245;68364;-74
2023/05/02 01:57:31;;;;;;;8.90;6.70;;;;;;;6.04;87.56;97745.05;109752;1244;59743;-75
2023/05/02 02:00:03;;;;;;;8.80;7.10;;;;;;;6.05;88.35;97747.77;110017;1244;59654;-74
2023/05/02 02:02:44;;;;;;;7.00;6.10;;;;;;;6.06;86.53;97752.76;110080;1244;71240;-75
2023/05/02 02:05:19;;;;;;;9.70;7.40;;;;;;;6.05;87.10;97748.96;109681;1241;672031;-75
2023/05/02 02:07:50;;;;;;;9.50;7.90;;;;;;;6.04;89.64;97748.14;110169;1245;68362;-75
2023/05/02 02:10:26;;;;;;;8.90;7.40;;;;;;;6.02;90.67;97749.84;110144;1241;59757;-76
2023/05/02 02:13:26;;;;;;;8.20;7.10;;;;;;;5.99;89.50;97753.27;110181;1241;59766;-76
2023/05/02 02:16:00;;;;;;;10.40;6.80;;;;;;;5.96;89.66;97755.31;110119;1243;71438;-76
2023/05/02 02:18:37;;;;;;;9.20;6.90;;;;;;;5.93;87.79;97752.69;110187;1244;68659;-76
2023/05/02 02:21:11;;;;;;;8.30;6.50;;;;;;;5.94;88.46;97757.65;110187;1245;69092;-74
2023/05/02 02:23:48;;;;;;;9.20;7.50;;;;;;;5.93;88.27;97758.55;110151;1241;59745;-75
2023/05/02 02:26:21;;;;;;;11.50;8.90;;;;;;;5.90;89.32;97760.94;110195;1247;59641;-74
2023/05/02 02:28:51;;;;;;;10.40;8.10;;;;;;;5.84;89.89;97762.25;110146;1243;70642;-74
2023/05/02 02:31:24;;;;;;;9.00;7.10;;;;;;;5.78;88.12;97767.02;110174;1241;68364;-74
2023/05/02 02:33:54;;;;;;;10.20;7.80;;;;;;;5.75;88.34;97764.08;110340;1243;68401;-74
2023/05/02 02:36:43;;;;;;;8.70;6.80;;;;;;;5.73;88.25;97765.40;110180;1244;59698;-75
2023/05/02 02:39:51;;;;;;;11.00;7.50;;;;;;;5.73;91.98;97770.92;110206;1245;59679;-75
2023/05/02 02:42:38;;;;;;;8.40;6.40;;;;;;;5.73;90.73;97769.55;110194;1243;71479;-75
2023/05/02 02:45:31;;;;;;;9.40;7.30;;;;;;;5.75;90.39;97768.27;110135;1243;68822;-75
2023/05/02 02:48:07;;;;;;;9.30;6.70;;;;;;;5.76;88.88;97770.77;110136;1241;69414;-75
2023/05/02 02:50:51;;;;;;;9.30;6.90;;;;;;;5.78;87.59;97772.77;110121;1243;59752;-75
2023/05/02 02:53:32;;;;;;;8.60;6.60;;;;;;;5.81;88.06;97778.52;110139;1241;59744;-74
2023/05/02 02:56:09;;;;;;;;;;;;;;;5.82;87.39;97783.80;110232;1244;70195;-75
2023/05/02 02:58:52;;;;;;;8.00;6.30;;;;;;;5.83;88.04;97784.64;110159;1243;68396;-75
2023/05/02 03:01:25;;;;;;;7.10;6.30;;;;;;;5.84;87.96;97784.21;110224;1241;69214;-75
2023/05/02 03:03:57;;;;;;;9.20;7.00;;;;;;;5.84;86.47;97786.81;110101;1245;59739;-75
2023/05/02 03:06:31;;;;;;;8.70;6.80;;;;;;;5.86;87.52;97789.52;110154;1244;59720;-75
2023/05/02 03:09:04;;;;;;;8.60;7.00;;;;;;;5.88;89.75;97788.03;110141;1243;70907;-75
2023/05/02 03:11:34;;;;;;;9.30;7.10;;;;;;;5.88;90.79;97790.61;110159;1241;69108;-75
2023/05/02 03:14:06;;;;;;;9.30;7.00;;;;;;;5.87;91.41;97788.60;110129;1241;68611;-75
2023/05/02 03:16:38;;;;;;;9.00;6.80;;;;;;;5.90;91.12;97789.70;110120;1245;59735;-75
2023/05/02 03:19:11;;;;;;;7.70;6.10;;;;;;;5.91;92.26;97793.23;110128;1244;59795;-75
2023/05/02 03:21:42;;;;;;;9.60;7.50;;;;;;;5.94;91.54;97795.73;110119;1241;71825;-75
2023/05/02 03:24:16;;;;;;;8.30;6.20;;;;;;;5.95;90.42;97801.20;110139;1244;69343;-74
2023/05/02 03:26:48;;;;;;;8.80;6.40;;;;;;;5.96;90.15;97805.33;110135;1245;69334;-75
2023/05/02 03:29:18;;;;;;;10.20;6.30;;;;;;;5.97;89.75;97808.58;110087;1241;59709;-75
2023/05/02 03:31:49;;;;;;;7.10;5.50;;;;;;;5.98;88.83;97813.33;110098;1244;59643;-74
2023/05/02 03:34:21;;;;;;;7.30;5.40;;;;;;;6.00;87.76;97812.88;110122;1241;71792;-75
2023/05/02 03:36:50;;;;;;;9.30;6.90;;;;;;;6.04;88.15;97813.57;110073;1245;68329;-75
2023/05/02 03:39:20;;;;;;;;;;;;;;;6.09;89.90;97817.15;110093;1244;69761;-75
2023/05/02 03:41:50;;;;;;;9.20;6.80;;;;;;;6.13;92.47;97820.03;110176;1241;59706;-75
2023/05/02 03:44:21;;;;;;;7.60;5.50;;;;;;;6.18;89.57;97823.30;110138;1241;59697;-75
2023/05/02 03:46:52;;;;;;;10.00;6.90;;;;;;;6.23;88.32;97823.57;110148;1241;71349;-75
2023/05/02 03:49:22;;;;;;;8.20;6.20;;;;;;;6.30;88.10;97823.21;110148;1244;68272;-75
2023/05/02 03:51:51;;;;;;;9.00;7.50;;;;;;;6.38;88.81;97827.67;110103;1244;69085;-75
2023/05/02 03:54:22;;;;;;;9.70;7.70;;;;;;;6.42;88.98;97827.85;110104;1244;59691;-75
2023/05/02 03:56:54;;;;;;;8.70;7.60;;;;;;;6.47;87.37;97828.94;110096;1241;59605;-75
2023/05/02 03:59:27;;;;;;;8.00;6.50;;;;;;;6.61;86.45;97828.60;110126;1244;71410;-75
2023/05/02 04:01:57;;;;;;;9.70;6.30;;;;;;;6.80;86.17;97830.06;110129;1244;69214;-75
2023/05/02 04:04:37;;;;;;;8.30;7.40;;;;;;;7.05;87.52;97834.17;110100;1243;69874;-75
2023/05/02 04:07:08;;;;;;;7.70;6.40;;;;;;;7.16;87.74;97832.89;110101;1241;59737;-75
2023/05/02 04:09:38;;;;;;;7.10;5.90;;;;;;;7.32;87.07;97835.16;110145;1243;59676;-74
2023/05/02 04:12:12;;;;;;;8.40;6.10;;;;;;;7.58;86.74;97839.32;110069;1241;71666;-74
2023/05/02 04:14:44;;;;;;;9.00;6.40;;;;;;;7.87;87.02;97840.55;110073;1244;69342;-74
2023/05/02 04:17:15;;;;;;;7.30;6.40;;;;;;;8.07;86.24;97841.84;110109;1242;68474;-74
2023/05/02 04:19:48;;;;;;;9.20;7.20;;;;;;;8.25;85.75;97845.73;110137;1241;59691;-77
2023/05/02 04:22:19;;;;;;;7.70;6.70;;;;;;;8.42;85.38;97843.73;110133;1245;59651;-75
2023/05/02 04:24:53;;;;;;;8.70;6.80;;;;;;;8.59;85.19;97843.81;110156;1243;70999;-75
2023/05/02 04:27:23;;;;;;;7.40;6.30;;;;;;;8.81;85.28;97840.27;110149;1245;68634;-75
2023/05/02 04:29:52;;;;;;;8.30;6.60;;;;;;;9.03;83.83;97842.38;110121;1244;69871;-75
2023/05/02 04:32:23;;;;;;;7.20;6.50;;;;;;;9.25;83.87;97840.79;110145;1245;59737;-75
2023/05/02 04:34:54;;;;;;;9.40;6.90;;;;;;;9.37;83.15;97837.73;110135;1243;59737;-75
2023/05/02 04:37:24;;;;;;;14.60;10.10;;;;;;;9.46;82.18;97846.45;110145;1244;71385;-75
2023/05/02 04:39:53;;;;;;;13.90;9.80;;;;;;;9.47;81.56;97845.16;110189;1241;70185;-75
2023/05/02 04:42:26;;;;;;;11.60;9.00;;;;;;;9.54;82.18;97850.10;110088;1241;68964;-75
2023/05/02 04:45:11;;;;;;;9.10;7.30;;;;;;;9.79;82.48;97850.64;110135;1244;60073;-76
2023/05/02 04:47:40;;;;;;;7.70;6.60;;;;;;;10.13;83.06;97856.13;110148;1245;59705;-76
2023/05/02 04:50:10;;;;;;;8.60;6.30;;;;;;;10.57;82.51;97857.69;110158;1244;71036;-76
2023/05/02 04:52:40;;;;;;;11.20;7.20;;;;;;;11.01;79.56;97854.56;110134;1241;69802;-75
2023/05/02 04:55:09;;;;;;;10.30;8.00;;;;;;;11.44;78.31;97854.60;110131;1241;68477;-76
2023/05/02 04:57:38;;;;;;;9.10;7.00;;;;;;;11.85;78.02;97855.62;110149;1245;59779;-76
2023/05/02 05:00:10;;;;;;;6.60;5.90;;;;;;;12.25;74.72;97856.04;110186;1241;59680;-76
2023/05/02 05:02:39;;;;;;;;;;;;;;;12.62;74.51;97851.58;110131;1244;71353;-76
2023/05/02 05:05:09;;;;;;;9.30;7.70;;;;;;;12.90;72.40;97852.48;110152;1243;69305;-76
2023/05/02 05:07:38;;;;;;;8.60;7.50;;;;;;;13.36;75.78;97848.34;110122;1241;69232;-76
2023/05/02 05:10:10;;;;;;;7.80;6.20;;;;;;;13.90;76.03;97847.44;110122;1243;59693;-76
2023/05/02 05:12:45;;;;;;;6.90;6.20;;;;;;;14.43;71.68;97849.48;110144;1245;59627;-75
2023/05/02 05:15:15;;;;;;;9.30;6.80;;;;;;;14.85;68.77;97850.73;110181;1243;71236;-75
2023/05/02 05:17:50;;;;;;;7.50;6.20;;;;;;;15.27;68.95;97847.54;110142;1243;69080;-76
2023/05/02 05:20:20;;;;;;;7.10;6.00;;;;;;;15.59;60.41;97844.48;110111;1244;69348;-76
2023/05/02 05:22:51;;;;;;;6.60;5.90;;;;;;;15.88;58.43;97849.41;110136;1241;59689;-76
2023/05/02 05:25:21;;;;;;;6.50;5.40;;;;;;;16.29;60.33;97850.61;110160;1244;59709;-76
2023/05/02 05:27:52;;;;;;;7.60;5.80;;;;;;;16.69;60.53;97851.27;110088;1241;71922;-75
2023/05/02 05:30:21;;;;;;;7.10;6.10;;;;;;;17.06;58.34;97849.70;110142;1241;69716;-77
2023/05/02 05:32:50;;;;;;;9.20;6.10;;;;;;;17.44;56.60;97848.23;110231;1245;68518;-76
2023/05/02 05:35:18;;;;;;;6.30;5.70;;;;;;;17.72;56.72;97848.27;110054;1244;59740;-76
2023/05/02 05:37:47;;;;;;;5.80;5.20;;;;;;;17.88;52.91;97846.44;110246;1241;59675;-76
2023/05/02 05:40:18;;;;;;;7.80;4.80;;;;;;;18.07;53.21;97847.91;110274;1243;70562;-76
2023/05/02 05:42:52;;;;;;;5.90;4.90;;;;;;;18.21;51.93;97843.77;110140;1244;69670;-75
2023/05/02 05:45:26;;;;;;;6.20;5.00;;;;;;;18.18;50.24;97846.69;110063;1244;69122;-76
2023/05/02 05:47:55;;;;;;;5.90;4.60;;;;;;;18.28;49.94;97849.19;110109;1241;59676;-74
2023/05/02 05:50:27;;;;;;;5.40;4.80;;;;;;;18.44;49.57;97853.38;110121;1244;59805;-76
2023/05/02 05:52:56;;;;;;;6.00;4.30;;;;;;;18.51;47.64;97848.02;110171;1244;71851;-75
2023/05/02 05:55:27;;;;;;;5.80;4.60;;;;;;;18.57;46.89;97847.98;110149;1243;69044;-75
2023/05/02 05:57:57;;;;;;;4.60;4.10;;;;;;;18.66;46.83;97845.85;110142;1244;69577;-75
2023/05/02 06:00:27;;;;;;;5.40;4.40;;;;;;;18.75;46.27;97843.73;110107;1241;59786;-76
2023/05/02 06:02:55;;;;;;;4.40;3.70;;;;;;;18.82;45.87;97842.77;110106;1244;59738;-75
2023/05/02 06:05:28;;;;;;;5.90;4.30;;;;;;;18.95;44.83;97841.35;110292;1243;71435;-75
2023/05/02 06:07:58;;;;;;;6.10;4.50;;;;;;;18.93;44.49;97839.85;110183;1243;69468;-75
2023/05/02 06:10:27;;;;;;;5.20;4.20;;;;;;;18.89;44.83;97843.59;110095;1245;69305;-74
2023/05/02 06:12:58;;;;;;;4.70;3.90;;;;;;;19.08;44.73;97839.89;110166;1241;60055;-74
2023/05/02 06:15:34;;;;;;;5.80;4.20;;;;;;;19.19;43.11;97835.50;110201;1243;59679;-73
2023/05/02 06:18:04;;;;;;;5.20;4.30;;;;;;;19.26;43.49;97836.08;110066;1244;69832;-72
2023/05/02 06:20:35;;;;;;;;;;;;;;;19.36;43.01;97838.32;110140;1245;70128;-75
2023/05/02 06:23:03;;;;;;;5.40;4.10;;;;;;;19.38;42.57;97838.61;110249;1243;69940;-74
2023/05/02 06:25:36;;;;;;;6.20;4.30;;;;;;;19.64;42.87;97844.61;110159;1241;59753;-72
2023/05/02 06:28:06;;;;;;;4.80;4.40;;;;;;;19.87;42.28;97838.05;110187;1243;59708;-71
2023/05/02 06:30:35;;;;;;;4.80;4.20;;;;;;;19.61;41.19;97842.08;110154;1241;71613;-75
2023/05/02 06:33:05;;;;;;;5.60;4.40;;;;;;;19.98;41.18;97842.52;110152;1245;68155;-72
2023/05/02 06:35:34;;;;;;;4.70;3.70;;;;;;;20.18;41.00;97844.89;110123;1245;69866;-73
2023/05/02 06:38:04;;;;;;;4.80;4.20;;;;;;;20.39;40.65;97844.49;110155;1243;59767;-75
2023/05/02 06:40:35;;;;;;;5.50;4.40;;;;;;;20.55;40.35;97840.92;110191;1241;59785;-74
2023/05/02 06:43:06;;;;;;;4.70;4.20;;;;;;;20.76;40.18;97839.59;110158;1241;71950;-75
2023/05/02 06:45:35;;;;;;;;;;;;;;;20.95;39.51;97845.50;110157;1241;69793;-74
2023/05/02 06:48:05;;;;;;;4.50;3.80;;;;;;;21.13;38.79;97840.20;110165;1241;69265;-75
2023/05/02 06:50:35;;;;;;;4.60;4.10;;;;;;;21.19;38.03;97837.91;110186;1243;59744;-75
2023/05/02 06:53:05;;;;;;;4.90;4.10;;;;;;;21.17;37.88;97837.29;110322;1243;59744;-75
2023/05/02 06:55:33;;;;;;;5.60;4.10;;;;;;;21.07;37.58;97835.13;110299;1244;71957;-74
2023/05/02 06:58:03;;;;;;;6.40;3.90;;;;;;;21.11;38.22;97831.02;110152;1241;69259;-74
2023/05/02 07:00:32;;;;;;;7.80;4.10;;;;;;;21.30;37.84;97822.11;110176;1241;67554;-74
2023/05/02 07:03:01;;;;;;;7.10;4.10;;;;;;;21.37;37.17;97821.98;110175;1241;59728;-74
2023/05/02 07:05:30;;;;;;;6.90;4.40;;;;;;;21.34;37.12;97826.15;110164;1241;59678;-74
2023/05/02 07:07:59;;;;;;;4.80;3.90;;;;;;;21.35;37.37;97824.26;110213;1244;71864;-74
2023/05/02 07:10:28;;;;;;;5.30;4.30;;;;;;;21.35;37.33;97826.08;110258;1241;68489;-74
2023/05/02 07:12:57;;;;;;;;;;;;;;;21.52;37.19;97825.64;110268;1241;67638;-75
2023/05/02 07:15:28;;;;;;;5.20;4.20;;;;;;;21.79;36.88;97821.00;110098;1243;59699;-74
2023/05/02 07:17:58;;;;;;;5.30;4.00;;;;;;;21.91;35.88;97821.58;110180;1241;59717;-75
2023/05/02 07:20:27;;;;;;;4.70;4.10;;;;;;;21.62;36.60;97820.55;110202;1241;71779;-74
2023/05/02 07:22:56;;;;;;;5.40;4.20;;;;;;;21.53;36.35;97821.77;110186;1241;69256;-72
2023/05/02 07:25:26;;;;;;;4.50;3.90;;;;;;;21.62;36.35;97823.02;110158;1241;69299;-72
2023/05/02 07:27:55;;;;;;;5.10;4.60;;;;;;;21.68;36.56;97820.60;110126;1243;59680;-73
2023/05/02 07:30:24;;;;;;;4.40;3.80;;;;;;;21.91;35.62;97820.89;110138;1242;59673;-74
2023/05/02 07:32:53;;;;;;;4.90;4.10;;;;;;;22.08;35.79;97819.68;110137;1241;71932;-73
2023/05/02 07:35:22;;;;;;;4.30;3.50;;;;;;;22.28;36.05;97821.80;110155;1244;68360;-73
2023/05/02 07:37:51;;;;;;;4.10;3.50;;;;;;;22.71;35.58;97818.44;110166;1243;69896;-73
2023/05/02 07:40:21;;;;;;;;;;;;;;;23.07;35.09;97814.77;110172;1243;59771;-73
2023/05/02 07:42:49;;;;;;;4.30;3.60;;;;;;;22.91;33.39;97816.48;110172;1245;59681;-73
2023/05/02 07:45:18;;;;;;;4.90;4.00;;;;;;;22.89;34.16;97815.11;110284;1242;71404;-74
2023/05/02 07:47:47;;;;;;;4.40;4.00;;;;;;;23.17;33.61;97813.77;110288;1243;68476;-73
2023/05/02 07:50:16;;;;;;;5.00;3.40;;;;;;;23.32;33.02;97812.89;110291;1241;68343;-74
2023/05/02 07:52:45;;;;;;;4.10;3.40;;;;;;;23.50;32.27;97817.78;110139;1243;59700;-73
2023/05/02 07:55:14;;;;;;;;;;;;;;;23.70;32.44;97819.53;110336;1243;59643;-73
2023/05/02 07:57:43;;;;;;;5.50;3.50;;;;;;;23.87;31.95;97818.95;110137;1241;71378;-75
2023/05/02 08:00:13;;;;;;;3.50;3.20;;;;;;;24.11;32.01;97819.96;110206;1243;70240;-71
2023/05/02 08:02:41;;;;;;;3.90;3.30;;;;;;;24.37;31.54;97823.04;110162;1243;69604;-74
2023/05/02 08:05:11;;;;;;;4.20;3.20;;;;;;;24.07;31.21;97819.35;110166;1241;59738;-74
2023/05/02 08:07:40;;;;;;;;;;;;;;;24.25;30.99;97818.53;110139;1244;59697;-73
2023/05/02 08:10:11;;;;;;;5.20;3.10;;;;;;;24.32;30.39;97814.84;110170;1241;71871;-74
2023/05/02 08:12:47;;;;;;;5.30;3.30;;;;;;;24.36;29.63;97811.40;110288;1241;69260;-73
2023/05/02 08:15:16;;;;;;;4.00;3.40;;;;;;;24.24;29.82;97808.28;110146;1241;69236;-73
2023/05/02 08:17:45;;;;;;;6.30;3.60;;;;;;;23.81;29.69;97806.14;110140;1243;59695;-73
2023/05/02 08:20:15;;;;;;;4.30;3.40;;;;;;;23.60;29.37;97797.52;110144;1243;59637;-72
2023/05/02 08:22:44;;;;;;;;;;;;;;;23.42;28.99;97797.68;110126;1242;71175;-74
2023/05/02 08:25:13;;;;;;;3.80;3.40;;;;;;;23.28;29.72;97801.37;110259;1243;69205;-74
2023/05/02 08:27:42;;;;;;;3.50;2.90;;;;;;;23.39;29.90;97797.11;110247;1244;69861;-73
2023/05/02 08:30:11;;;;;;;4.20;3.30;;;;;;;23.59;30.15;97797.56;110257;1244;59698;-74
2023/05/02 08:32:40;;;;;;;3.60;3.20;;;;;;;23.88;29.30;97799.77;110234;1244;59699;-74
2023/05/02 08:35:09;;;;;;;3.20;2.70;;;;;;;23.93;28.88;97799.91;110272;1244;71961;-73
2023/05/02 08:37:41;;;;;;;4.50;2.90;;;;;;;24.29;29.12;97801.16;110271;1241;69283;-74
2023/05/02 08:40:11;;;;;;;4.80;3.50;;;;;;;24.54;28.99;97803.52;110244;1243;69090;-74
2023/05/02 08:42:43;;;;;;;4.40;3.20;;;;;;;24.73;28.80;97802.89;110266;1244;59705;-74
2023/05/02 08:45:14;;;;;;;4.10;3.10;;;;;;;24.93;27.99;97799.65;110296;1243;59796;-73
2023/05/02 08:47:46;;;;;;;3.70;3.00;;;;;;;25.29;27.84;97786.38;110159;1244;71378;-74
2023/05/02 08:50:17;;;;;;;4.10;3.20;;;;;;;25.26;27.71;97793.39;110366;1244;69294;-74
2023/05/02 08:52:47;;;;;;;3.80;3.00;;;;;;;25.15;28.91;97784.91;110327;1244;69704;-73
2023/05/02 08:55:17;;;;;;;4.40;3.80;;;;;;;25.42;28.49;97784.96;110286;1245;59694;-74
2023/05/02 08:57:46;;;;;;;3.80;3.30;;;;;;;25.27;28.72;97785.70;110275;1241;59726;-74
2023/05/02 09:00:17;;;;;;;3.30;2.80;;;;;;;25.55;28.23;97777.44;110316;1243;72106;-74
2023/05/02 09:03:10;;;;;;;4.80;3.30;;;;;;;25.38;27.97;97774.20;110280;1241;69063;-73
2023/05/02 09:05:41;;;;;;;5.20;2.80;;;;;;;26.00;27.66;97769.84;110277;1241;68657;-73
2023/05/02 09:08:10;;;;;;;4.40;3.10;;;;;;;25.71;26.35;97767.43;110293;1241;59734;-72
2023/05/02 09:10:41;;;;;;;4.40;2.90;;;;;;;26.18;27.21;97765.81;110258;1246;59636;-73
2023/05/02 09:13:43;;;;;;;3.70;3.00;;;;;;;26.41;26.05;97768.23;110313;1241;71832;-73
2023/05/02 09:16:17;;;;;;;4.20;2.90;;;;;;;26.41;25.90;97769.14;110124;1244;70204;-73
2023/05/02 09:18:48;;;;;;;4.30;3.20;;;;;;;25.90;26.27;97767.73;110226;1244;68534;-73
2023/05/02 09:21:22;;;;;;;4.00;3.10;;;;;;;25.85;26.61;97767.35;110282;1244;59750;-74
2023/05/02 09:23:54;;;;;;;4.90;3.10;;;;;;;25.68;26.31;97766.55;110223;1243;59689;-73
2023/05/02 09:26:30;;;;;;;3.00;2.60;;;;;;;25.58;26.51;97763.90;110226;1244;69844;-73
2023/05/02 09:29:02;;;;;;;3.80;2.80;;;;;;;25.67;26.57;97760.95;110278;1243;69202;-73
2023/05/02 09:31:35;;;;;;;3.00;2.70;;;;;;;25.87;27.09;97757.59;110203;1241;68124;-73
2023/05/02 09:34:23;;;;;;;3.40;2.90;;;;;;;26.34;26.52;97757.70;110248;1241;59736;-73
2023/05/02 09:36:52;;;;;;;3.40;2.50;;;;;;;26.55;26.42;97760.27;110199;1244;59649;-74
2023/05/02 09:39:29;;;;;;;4.70;3.00;;;;;;;26.73;25.88;97758.76;110281;1244;72004;-74
2023/05/02 09:42:02;;;;;;;3.40;2.70;;;;;;;26.91;25.12;97752.06;110263;1245;68500;-74
2023/05/02 09:44:38;;;;;;;4.30;2.40;;;;;;;26.86;24.72;97754.39;110252;1241;69270;-74
2023/05/02 09:47:07;;;;;;;5.70;2.70;;;;;;;26.84;24.75;97751.81;110302;1242;59666;-73
2023/05/02 09:49:45;;;;;;;3.50;2.90;;;;;;;26.72;24.46;97750.55;110221;1244;59683;-73
2023/05/02 09:52:21;;;;;;;3.80;2.20;;;;;;;26.54;24.47;97752.61;110285;1244;70863;-72
2023/05/02 09:54:51;;;;;;;3.70;2.60;;;;;;;26.29;24.61;97754.13;110230;1243;70195;-72
2023/05/02 09:57:20;;;;;;;3.60;2.90;;;;;;;26.08;24.39;97748.36;110240;1243;68322;-73
2023/05/02 09:59:55;;;;;;;;;;;;;;;25.98;25.08;97743.36;110265;1241;59647;-73
2023/05/02 10:02:25;;;;;;;4.30;2.60;;;;;;;25.84;24.68;97741.21;110280;1242;59648;-73
2023/05/02 10:04:56;;;;;;;4.10;2.80;;;;;;;25.93;25.41;97739.03;110250;1241;70468;-73
2023/05/02 10:07:26;;;;;;;3.60;2.60;;;;;;;26.24;24.98;97737.05;110276;1241;69224;-74
2023/05/02 10:10:00;;;;;;;3.60;2.40;;;;;;;26.19;23.83;97736.88;110225;1243;69720;-74
2023/05/02 10:12:31;;;;;;;4.20;2.80;;;;;;;26.29;24.56;97734.75;110257;1241;59691;-72
2023/05/02 10:15:03;;;;;;;3.70;2.60;;;;;;;26.18;24.25;97730.23;110115;1241;59731;-73
2023/05/02 10:17:45;;;;;;;3.30;2.50;;;;;;;26.10;23.81;97729.69;110266;1244;70625;-74
2023/05/02 10:20:22;;;;;;;2.80;2.40;;;;;;;26.05;22.75;97727.38;110238;1243;68323;-72
2023/05/02 10:22:52;;;;;;;2.90;2.30;;;;;;;26.02;23.65;97722.66;110211;1244;69786;-72
2023/05/02 10:25:22;;;;;;;4.10;2.80;;;;;;;25.74;23.30;97723.59;110267;1244;59814;-72
2023/05/02 10:27:52;;;;;;;3.30;2.60;;;;;;;25.89;23.55;97723.81;110246;1243;59678;-73
2023/05/02 10:30:22;;;;;;;3.90;2.90;;;;;;;26.03;23.76;97716.65;110257;1241;71477;-73
2023/05/02 10:32:53;;;;;;;5.90;3.10;;;;;;;26.21;23.90;97710.46;110240;1244;69556;-72
2023/05/02 10:35:23;;;;;;;3.50;2.50;;;;;;;26.23;23.59;97710.52;110278;1245;69091;-73
2023/05/02 10:37:52;;;;;;;3.00;2.20;;;;;;;26.49;23.58;97714.80;110202;1247;59707;-73
2023/05/02 10:40:22;;;;;;;3.30;2.10;;;;;;;26.81;22.89;97710.66;110190;1244;59695;-73
2023/05/02 10:42:53;;;;;;;3.60;2.30;;;;;;;27.17;22.23;97704.71;110204;1243;71287;-72
2023/05/02 10:45:33;;;;;;;4.50;2.20;;;;;;;27.39;21.94;97690.30;110259;1241;69805;-72
2023/05/02 10:48:29;;;;;;;4.50;2.50;;;;;;;27.38;22.20;97702.23;110214;1241;69271;-72
2023/05/02 10:51:02;;;;;;;3.50;2.40;;;;;;;27.41;21.43;97699.87;110249;1244;59750;-72
2023/05/02 10:53:35;;;;;;;4.00;2.50;;;;;;;27.15;21.88;97701.63;110271;1242;59672;-72
2023/05/02 10:56:20;;;;;;;5.70;2.70;;;;;;;27.49;22.31;97696.25;110246;1245;72142;-73
2023/05/02 10:58:50;;;;;;;3.10;2.50;;;;;;;27.39;21.88;97696.86;110275;1241;69117;-71
2023/05/02 11:01:28;;;;;;;2.40;2.00;;;;;;;27.32;21.96;97698.36;110250;1243;67496;-72
2023/05/02 11:04:08;;;;;;;3.40;2.20;;;;;;;27.23;22.22;97699.00;110210;1244;59725;-72
2023/05/02 11:06:55;;;;;;;3.30;2.40;;;;;;;27.44;21.73;97700.67;110240;1244;59681;-72
2023/05/02 11:09:24;;;;;;;2.90;2.40;;;;;;;27.73;21.66;97699.55;110235;1243;71474;-72
2023/05/02 11:11:55;;;;;;;3.30;2.40;;;;;;;27.90;21.43;97702.86;110243;1241;68591;-70
2023/05/02 11:14:24;;;;;;;2.80;2.20;;;;;;;27.43;21.50;97691.77;110133;1241;68738;-73
2023/05/02 11:16:56;;;;;;;2.70;2.20;;;;;;;27.11;21.59;97693.58;110065;1244;59783;-72
2023/05/02 11:19:27;;;;;;;2.50;2.20;;;;;;;27.07;22.07;97695.69;110128;1243;59757;-73
2023/05/02 11:22:20;;;;;;;3.80;2.10;;;;;;;27.10;21.67;97691.02;110123;1241;71517;-72
2023/05/02 11:24:50;;;;;;;3.00;2.10;;;;;;;27.40;21.72;97687.11;110288;1241;68376;-72
2023/05/02 11:27:28;;;;;;;2.40;2.10;;;;;;;27.67;22.11;97691.10;110228;1241;68514;-73
2023/05/02 11:30:05;;;;;;;3.70;2.30;;;;;;;28.14;22.09;97685.95;110068;1244;59750;-73
2023/05/02 11:32:44;;;;;;;2.70;1.90;;;;;;;28.52;21.19;97691.95;110095;1245;59712;-73
2023/05/02 11:35:16;;;;;;;;;;;;;;;28.15;21.09;97686.85;110129;1244;70632;-73
2023/05/02 11:37:54;;;;;;;3.80;2.30;;;;;;;28.16;21.19;97683.44;110193;1241;69156;-73
2023/05/02 11:40:25;;;;;;;2.30;1.80;;;;;;;27.83;20.36;97681.65;110207;1245;69606;-73
2023/05/02 11:42:54;;;;;;;3.60;2.40;;;;;;;27.90;20.55;97677.95;110245;1241;59799;-73
2023/05/02 11:45:36;;;;;;;3.60;2.50;;;;;;;27.55;20.85;97675.20;110079;1243;59740;-71
2023/05/02 11:48:06;;;;;;;5.50;2.90;;;;;;;27.39;21.25;97671.05;110067;1241;70473;-72
2023/05/02 11:50:42;;;;;;;2.90;2.50;;;;;;;27.42;21.57;97669.27;110148;1241;69606;-71
2023/05/02 11:53:23;;;;;;;3.20;2.20;;;;;;;27.53;21.33;97665.63;110261;1241;69291;-72
2023/05/02 11:55:58;;;;;;;2.90;2.40;;;;;;;27.56;21.62;97660.54;110232;1243;59754;-72